createdAt,value
2018-07-11T00:02:11.331Z,14.49
2018-07-11T00:04:40.662Z,14.47
2018-07-11T00:07:09.955Z,14.38
2018-07-11T00:09:39.204Z,14.31
2018-07-11T00:12:08.418Z,14.32
2018-07-11T00:14:37.706Z,14.35
2018-07-11T00:17:10.994Z,14.35
2018-07-11T00:19:40.287Z,14.40
2018-07-11T00:22:09.599Z,14.45
2018-07-11T00:24:39.968Z,14.38
2018-07-11T00:27:09.236Z,14.37
2018-07-11T00:29:39.772Z,14.34
2018-07-11T00:32:09.025Z,14.24
2018-07-11T00:34:38.274Z,14.33
2018-07-11T00:37:07.593Z,14.34
2018-07-11T00:39:36.767Z,14.38
2018-07-11T00:42:06.043Z,14.38
2018-07-11T00:44:35.328Z,14.44
2018-07-11T00:47:06.163Z,14.48
2018-07-11T00:49:35.396Z,14.45
2018-07-11T00:52:04.691Z,14.41
2018-07-11T00:54:33.918Z,14.44
2018-07-11T00:57:03.523Z,14.45
2018-07-11T00:59:33.593Z,14.36
2018-07-11T01:02:06.331Z,14.43
2018-07-11T01:04:35.871Z,14.46
2018-07-11T01:07:06.594Z,14.45
2018-07-11T01:09:47.531Z,14.46
2018-07-11T01:12:16.859Z,14.52
2018-07-11T01:14:46.678Z,14.49
2018-07-11T01:17:21.171Z,14.46
2018-07-11T01:19:51.606Z,14.53
2018-07-11T01:22:20.851Z,14.63
2018-07-11T01:24:50.047Z,14.64
2018-07-11T01:27:19.287Z,14.63
2018-07-11T01:29:50.103Z,14.64
2018-07-11T01:32:19.335Z,14.61
2018-07-11T01:34:49.544Z,14.62
2018-07-11T01:37:18.750Z,14.69
2018-07-11T01:39:48.010Z,14.70
2018-07-11T01:42:17.222Z,14.74
2018-07-11T01:44:46.456Z,14.72
2018-07-11T01:47:15.702Z,14.62
2018-07-11T01:49:44.926Z,14.60
2018-07-11T01:52:31.139Z,14.61
2018-07-11T01:55:00.408Z,14.61
2018-07-11T01:57:29.397Z,14.66
2018-07-11T01:59:58.381Z,14.70
2018-07-11T02:02:27.614Z,14.74
2018-07-11T02:04:56.902Z,14.86
2018-07-11T02:07:26.154Z,14.77
2018-07-11T02:09:55.459Z,14.79
2018-07-11T02:12:25.183Z,14.81
2018-07-11T02:14:59.626Z,14.83
2018-07-11T02:17:28.854Z,14.81
2018-07-11T02:19:58.199Z,14.84
2018-07-11T02:22:28.059Z,14.82
2018-07-11T02:24:57.322Z,14.80
2018-07-11T02:27:26.613Z,14.78
2018-07-11T02:29:55.890Z,14.80
2018-07-11T02:32:25.148Z,14.76
2018-07-11T02:34:55.671Z,14.78
2018-07-11T02:37:24.963Z,14.74
2018-07-11T02:39:54.215Z,14.74
2018-07-11T02:42:23.608Z,14.72
2018-07-11T02:44:52.950Z,14.73
2018-07-11T02:47:28.491Z,14.77
2018-07-11T02:49:57.758Z,14.80
2018-07-11T02:52:26.991Z,14.82
2018-07-11T02:54:56.020Z,14.82
2018-07-11T02:57:25.291Z,14.81
2018-07-11T02:59:54.563Z,14.84
2018-07-11T03:02:23.862Z,14.81
2018-07-11T03:04:54.874Z,14.76
2018-07-11T03:07:24.132Z,14.77
2018-07-11T03:09:53.426Z,14.76
2018-07-11T03:12:23.328Z,14.74
2018-07-11T03:14:53.046Z,14.78
2018-07-11T03:17:24.453Z,14.74
2018-07-11T03:19:53.730Z,14.74
2018-07-11T03:22:23.013Z,14.80
2018-07-11T03:24:52.315Z,14.78
2018-07-11T03:27:21.605Z,14.87
2018-07-11T03:29:50.875Z,14.79
2018-07-11T03:32:20.092Z,14.84
2018-07-11T03:34:49.314Z,14.94
2018-07-11T03:37:18.525Z,14.89
2018-07-11T03:39:47.675Z,14.90
2018-07-11T03:42:16.907Z,14.89
2018-07-11T03:44:46.206Z,14.86
2018-07-11T03:47:15.739Z,14.81
2018-07-11T03:49:44.964Z,14.80
2018-07-11T03:52:14.224Z,14.73
2018-07-11T03:54:43.455Z,14.72
2018-07-11T03:57:12.702Z,14.80
2018-07-11T03:59:41.919Z,14.72
2018-07-11T04:02:11.170Z,14.69
2018-07-11T04:04:40.374Z,14.73
2018-07-11T04:07:09.674Z,14.76
2018-07-11T04:09:38.918Z,14.77
2018-07-11T04:12:08.170Z,14.79
2018-07-11T04:14:37.394Z,14.72
2018-07-11T04:17:06.629Z,14.77
2018-07-11T04:19:35.818Z,14.80
2018-07-11T04:22:05.059Z,14.87
2018-07-11T04:24:34.302Z,14.85
2018-07-11T04:27:03.538Z,14.89
2018-07-11T04:29:33.919Z,14.84
2018-07-11T04:32:03.149Z,14.81
2018-07-11T04:34:32.402Z,14.84
2018-07-11T04:37:03.071Z,14.91
2018-07-11T04:39:32.287Z,14.90
2018-07-11T04:42:01.589Z,14.86
2018-07-11T04:44:30.841Z,14.92
2018-07-11T04:47:00.159Z,14.89
2018-07-11T04:49:30.407Z,14.97
2018-07-11T04:51:59.632Z,15.00
2018-07-11T04:54:29.338Z,15.01
2018-07-11T04:56:58.652Z,15.06
2018-07-11T04:59:27.886Z,15.07
2018-07-11T05:01:57.180Z,15.00
2018-07-11T05:04:26.467Z,15.06
2018-07-11T05:06:55.795Z,15.14
2018-07-11T05:09:25.199Z,15.19
2018-07-11T05:11:54.590Z,14.98
2018-07-11T05:14:24.523Z,14.96
2018-07-11T05:16:53.825Z,15.03
2018-07-11T05:19:23.119Z,14.96
2018-07-11T05:21:52.508Z,14.96
2018-07-11T05:24:21.709Z,14.94
2018-07-11T05:26:50.998Z,15.03
2018-07-11T05:29:20.251Z,15.07
2018-07-11T05:31:49.513Z,15.02
2018-07-11T05:34:18.870Z,15.12
2018-07-11T05:36:48.121Z,15.29
2018-07-11T05:39:17.388Z,15.33
2018-07-11T05:41:46.726Z,15.33
2018-07-11T05:44:16.010Z,15.48
2018-07-11T05:46:45.246Z,15.82
2018-07-11T05:49:14.522Z,16.06
2018-07-11T05:51:43.863Z,16.12
2018-07-11T05:54:13.120Z,16.23
2018-07-11T05:56:42.343Z,16.61
2018-07-11T05:59:11.670Z,17.10
2018-07-11T06:01:40.920Z,17.06
2018-07-11T06:04:10.198Z,16.99
2018-07-11T06:06:39.527Z,16.74
2018-07-11T06:09:09.188Z,17.29
2018-07-11T06:11:45.259Z,17.01
2018-07-11T06:14:14.580Z,16.87
2018-07-11T06:16:44.920Z,17.03
2018-07-11T06:19:14.190Z,17.68
2018-07-11T06:21:46.378Z,17.51
2018-07-11T06:24:15.644Z,18.57
2018-07-11T06:26:44.931Z,17.93
2018-07-11T06:29:14.143Z,18.31
2018-07-11T06:31:43.409Z,18.33
2018-07-11T06:34:12.758Z,17.96
2018-07-11T06:36:42.005Z,17.96
2018-07-11T06:39:11.362Z,17.87
2018-07-11T06:41:40.635Z,17.42
2018-07-11T06:44:09.930Z,17.40
2018-07-11T06:46:39.735Z,17.56
2018-07-11T06:49:09.099Z,17.68
2018-07-11T06:51:38.370Z,17.63
2018-07-11T06:54:07.862Z,17.67
2018-07-11T06:56:37.095Z,17.43
2018-07-11T06:59:06.352Z,17.18
2018-07-11T07:01:35.566Z,17.23
2018-07-11T07:04:04.828Z,17.19
2018-07-11T07:06:34.055Z,17.64
2018-07-11T07:09:03.684Z,17.78
2018-07-11T07:11:32.903Z,17.94
2018-07-11T07:14:02.131Z,17.99
2018-07-11T07:16:31.447Z,18.02
2018-07-11T07:19:00.433Z,16.92
2018-07-11T07:21:29.661Z,17.19
2018-07-11T07:23:58.878Z,17.86
2018-07-11T07:26:28.112Z,18.10
2018-07-11T07:28:57.367Z,17.92
2018-07-11T07:31:26.609Z,18.50
2018-07-11T07:33:55.825Z,18.30
2018-07-11T07:36:25.063Z,18.07
2018-07-11T07:38:54.422Z,17.64
2018-07-11T07:41:23.663Z,17.76
2018-07-11T07:43:53.023Z,17.51
2018-07-11T07:46:22.311Z,17.56
2018-07-11T07:48:51.594Z,17.78
2018-07-11T07:51:20.804Z,18.69
2018-07-11T07:53:50.195Z,18.87
2018-07-11T07:56:19.998Z,18.35
2018-07-11T07:58:49.215Z,19.20
2018-07-11T08:01:18.461Z,17.91
2018-07-11T08:03:47.659Z,18.74
2018-07-11T08:06:16.898Z,19.14
2018-07-11T08:08:46.108Z,19.21
2018-07-11T08:11:15.328Z,18.24
2018-07-11T08:13:44.534Z,18.29
2018-07-11T08:16:13.810Z,19.79
2018-07-11T08:18:43.021Z,19.35
2018-07-11T08:21:12.297Z,19.29
2018-07-11T08:23:58.553Z,18.98
2018-07-11T08:26:44.886Z,18.68
2018-07-11T08:32:02.478Z,18.11
2018-07-11T08:34:51.195Z,18.58
2018-07-11T08:37:38.341Z,17.92
2018-07-11T08:41:26.474Z,18.21
2018-07-11T08:46:20.607Z,18.15
2018-07-11T08:51:14.556Z,18.52
2018-07-11T08:56:11.011Z,18.75
2018-07-11T08:58:52.790Z,19.03
2018-07-11T09:06:50.610Z,18.85
2018-07-11T09:09:41.971Z,19.30
2018-07-11T09:14:33.185Z,18.88
2018-07-11T09:18:19.544Z,19.33
2018-07-11T09:23:34.600Z,18.93
2018-07-11T09:26:03.878Z,19.52
2018-07-11T09:28:33.089Z,19.35
2018-07-11T09:31:02.293Z,19.80
2018-07-11T09:33:31.508Z,20.49
2018-07-11T09:36:00.712Z,20.51
2018-07-11T09:38:30.004Z,20.16
2018-07-11T09:40:59.271Z,20.42
2018-07-11T09:43:28.519Z,21.12
2018-07-11T09:45:57.890Z,21.17
2018-07-11T09:48:27.205Z,21.69
2018-07-11T09:50:56.482Z,21.27
2018-07-11T09:53:25.780Z,20.48
2018-07-11T09:55:55.041Z,20.14
2018-07-11T09:58:24.293Z,19.97
2018-07-11T10:01:01.365Z,20.11
2018-07-11T10:03:31.199Z,19.96
2018-07-11T10:06:00.590Z,19.89
2018-07-11T10:08:29.940Z,19.90
2018-07-11T10:10:59.166Z,19.69
2018-07-11T10:13:28.438Z,19.71
2018-07-11T10:15:57.755Z,19.48
2018-07-11T10:18:27.008Z,19.55
2018-07-11T10:20:56.310Z,19.64
2018-07-11T10:23:25.528Z,19.69
2018-07-11T10:25:54.784Z,19.35
2018-07-11T10:28:24.041Z,19.08
2018-07-11T10:30:53.359Z,19.09
2018-07-11T10:33:22.571Z,18.86
2018-07-11T10:35:51.795Z,19.35
2018-07-11T10:38:21.653Z,19.28
2018-07-11T10:40:50.915Z,19.11
2018-07-11T10:43:20.203Z,19.26
2018-07-11T10:45:49.508Z,19.63
2018-07-11T10:48:18.774Z,19.80
2018-07-11T10:50:48.070Z,19.46
2018-07-11T10:53:17.343Z,18.95
2018-07-11T10:55:46.586Z,18.78
2018-07-11T10:58:15.826Z,18.29
2018-07-11T11:01:05.031Z,18.22
2018-07-11T11:03:14.732Z,18.14
2018-07-11T11:05:43.963Z,17.90
2018-07-11T11:08:13.234Z,17.93
2018-07-11T11:10:42.579Z,17.98
2018-07-11T11:13:11.848Z,18.14
2018-07-11T11:15:41.091Z,18.38
2018-07-11T11:18:10.245Z,18.66
2018-07-11T11:20:39.484Z,19.01
2018-07-11T11:23:08.826Z,19.08
2018-07-11T11:25:38.142Z,19.27
2018-07-11T11:28:07.427Z,19.25
2018-07-11T11:30:37.123Z,19.54
2018-07-11T11:33:06.552Z,20.17
2018-07-11T11:35:35.822Z,19.72
2018-07-11T11:38:05.226Z,20.68
2018-07-11T11:40:34.678Z,19.98
2018-07-11T11:43:03.990Z,20.07
2018-07-11T11:45:33.313Z,20.48
2018-07-11T11:48:03.553Z,20.36
2018-07-11T11:50:32.854Z,20.44
2018-07-11T11:53:02.443Z,20.08
2018-07-11T11:55:31.697Z,20.38
2018-07-11T11:58:01.184Z,20.37
2018-07-11T12:00:30.497Z,20.04
2018-07-11T12:02:59.807Z,19.98
2018-07-11T12:05:29.144Z,19.87
2018-07-11T12:07:58.439Z,20.01
2018-07-11T12:10:27.762Z,19.95
2018-07-11T12:12:57.027Z,19.89
2018-07-11T12:15:26.563Z,19.51
2018-07-11T12:17:55.787Z,19.35
2018-07-11T12:20:25.107Z,19.31
2018-07-11T12:22:54.557Z,19.38
2018-07-11T12:25:24.015Z,19.66
2018-07-11T12:27:53.358Z,19.56
2018-07-11T12:30:22.592Z,19.71
2018-07-11T12:32:51.901Z,19.76
2018-07-11T12:35:21.182Z,19.93
2018-07-11T12:37:50.183Z,20.94
2018-07-11T12:40:19.510Z,20.41
2018-07-11T12:42:48.889Z,20.09
2018-07-11T12:45:18.274Z,19.93
2018-07-11T12:47:52.912Z,20.11
2018-07-11T12:50:22.202Z,19.81
2018-07-11T12:52:51.429Z,19.83
2018-07-11T12:55:20.725Z,19.81
2018-07-11T12:57:49.990Z,19.53
2018-07-11T13:00:19.274Z,19.35
2018-07-11T13:02:48.675Z,19.39
2018-07-11T13:05:18.053Z,19.49
2018-07-11T13:07:47.379Z,19.26
2018-07-11T13:10:16.724Z,19.33
2018-07-11T13:12:46.015Z,19.39
2018-07-11T13:15:15.308Z,19.35
2018-07-11T13:17:45.404Z,19.27
2018-07-11T13:20:14.705Z,19.07
2018-07-11T13:22:43.905Z,18.95
2018-07-11T13:25:13.212Z,19.16
2018-07-11T13:27:42.592Z,19.33
2018-07-11T13:30:11.902Z,19.66
2018-07-11T13:32:40.931Z,19.80
2018-07-11T13:35:10.245Z,19.61
2018-07-11T13:37:39.520Z,19.94
2018-07-11T13:40:08.962Z,20.05
2018-07-11T13:42:38.981Z,20.25
2018-07-11T13:45:08.254Z,19.92
2018-07-11T13:47:37.529Z,20.15
2018-07-11T13:50:06.922Z,20.70
2018-07-11T13:52:36.298Z,20.47
2018-07-11T13:55:05.700Z,20.42
2018-07-11T13:57:34.742Z,20.18
2018-07-11T14:00:04.251Z,20.41
2018-07-11T14:02:33.644Z,20.70
2018-07-11T14:05:03.102Z,21.29
2018-07-11T14:07:32.540Z,21.68
2018-07-11T14:10:01.843Z,20.97
2018-07-11T14:12:31.203Z,20.92
2018-07-11T14:15:00.581Z,20.03
2018-07-11T14:17:29.944Z,20.19
2018-07-11T14:19:59.454Z,20.16
2018-07-11T14:22:28.808Z,20.20
2018-07-11T14:24:58.196Z,20.16
2018-07-11T14:27:28.361Z,19.97
2018-07-11T14:29:59.348Z,21.10
2018-07-11T14:32:28.643Z,21.40
2018-07-11T14:34:58.008Z,21.81
2018-07-11T14:37:27.344Z,21.89
2018-07-11T14:39:56.644Z,22.06
2018-07-11T14:42:26.050Z,21.52
2018-07-11T14:47:29.641Z,21.71
2018-07-11T14:49:59.182Z,21.53
2018-07-11T14:52:28.483Z,21.76
2018-07-11T14:54:57.743Z,21.70
2018-07-11T14:57:26.988Z,21.76
2018-07-11T14:59:56.240Z,22.23
2018-07-11T15:02:25.646Z,22.64
2018-07-11T15:04:54.954Z,22.67
2018-07-11T15:07:24.466Z,22.62
2018-07-11T15:09:53.799Z,22.41
2018-07-11T15:12:23.188Z,22.89
2018-07-11T15:14:52.892Z,22.30
2018-07-11T15:17:22.612Z,22.27
2018-07-11T15:19:51.983Z,21.96
2018-07-11T15:22:21.511Z,21.42
2018-07-11T15:24:50.910Z,22.16
2018-07-11T15:27:20.428Z,21.98
2018-07-11T15:29:49.853Z,21.89
2018-07-11T15:32:19.332Z,22.02
2018-07-11T15:34:48.743Z,22.02
2018-07-11T15:37:18.163Z,22.56
2018-07-11T15:39:47.556Z,22.53
2018-07-11T15:42:16.862Z,22.45
2018-07-11T15:44:46.311Z,21.38
2018-07-11T15:47:15.721Z,21.77
2018-07-11T15:49:44.962Z,21.75
2018-07-11T15:52:14.396Z,21.89
2018-07-11T15:54:43.827Z,22.35
2018-07-11T15:57:14.215Z,22.04
2018-07-11T15:59:56.676Z,22.73
2018-07-11T16:02:26.010Z,21.95
2018-07-11T16:04:55.484Z,22.49
2018-07-11T16:07:28.358Z,22.15
2018-07-11T16:09:59.130Z,22.27
2018-07-11T16:12:28.485Z,22.80
2018-07-11T16:14:58.085Z,23.07
2018-07-11T16:17:27.552Z,22.70
2018-07-11T16:19:56.903Z,22.45
2018-07-11T16:22:26.272Z,22.09
2018-07-11T16:24:55.599Z,21.71
2018-07-11T16:27:24.985Z,21.18
2018-07-11T16:29:54.310Z,21.57
2018-07-11T16:32:23.610Z,21.81
2018-07-11T16:34:53.035Z,22.13
2018-07-11T16:37:22.411Z,21.75
2018-07-11T16:39:51.795Z,21.53
2018-07-11T16:42:21.209Z,21.69
2018-07-11T16:44:52.138Z,21.34
2018-07-11T16:47:22.175Z,21.48
2018-07-11T16:49:51.236Z,21.43
2018-07-11T16:52:20.541Z,21.95
2018-07-11T16:54:49.986Z,22.88
2018-07-11T16:57:31.850Z,24.29
2018-07-11T17:00:07.324Z,24.93
2018-07-11T17:02:36.743Z,23.09
2018-07-11T17:05:09.092Z,21.78
2018-07-11T17:07:57.933Z,21.46
2018-07-11T17:10:29.475Z,20.82
2018-07-11T17:13:10.743Z,20.67
2018-07-11T17:15:40.918Z,20.40
2018-07-11T17:18:13.647Z,20.45
2018-07-11T17:20:43.142Z,20.61
2018-07-11T17:23:12.642Z,20.60
2018-07-11T17:25:43.189Z,20.39
2018-07-11T17:28:12.798Z,20.22
2018-07-11T17:30:43.555Z,20.36
2018-07-11T17:33:13.811Z,20.26
2018-07-11T17:35:50.562Z,20.15
2018-07-11T17:38:25.814Z,20.15
2018-07-11T17:40:55.298Z,20.27
2018-07-11T17:43:36.987Z,20.16
2018-07-11T17:46:06.939Z,19.90
2018-07-11T17:49:11.196Z,20.06
2018-07-11T17:52:07.382Z,20.03
2018-07-11T17:55:18.217Z,19.87
2018-07-11T17:57:56.218Z,19.89
2018-07-11T18:00:35.729Z,19.73
2018-07-11T18:03:15.038Z,19.71
2018-07-11T18:06:42.604Z,19.74
2018-07-11T18:09:14.351Z,19.64
2018-07-11T18:12:13.810Z,19.60
2018-07-11T18:14:56.591Z,19.45
2018-07-11T18:19:55.785Z,19.40
2018-07-11T18:22:36.242Z,19.29
2018-07-11T18:28:27.648Z,19.36
2018-07-11T18:31:29.692Z,19.40
2018-07-11T18:34:32.961Z,19.35
2018-07-11T18:39:22.163Z,19.29
2018-07-11T18:42:07.237Z,19.08
2018-07-11T18:47:33.025Z,19.01
2018-07-11T18:50:19.177Z,18.88
2018-07-11T18:52:57.872Z,18.88
2018-07-11T18:56:39.679Z,18.81
2018-07-11T18:59:59.203Z,18.74
2018-07-11T19:02:47.744Z,18.61
2018-07-11T19:05:27.101Z,18.56
2018-07-11T19:08:09.231Z,18.46
2018-07-11T19:11:15.207Z,18.39
2018-07-11T19:13:48.332Z,18.31
2018-07-11T19:16:26.467Z,18.27
2018-07-11T19:19:02.349Z,18.21
2018-07-11T19:23:51.787Z,18.21
2018-07-11T19:26:47.387Z,18.20
2018-07-11T19:30:29.738Z,18.22
2018-07-11T19:33:43.711Z,18.08
2018-07-11T19:36:30.057Z,18.05
2018-07-11T19:39:07.465Z,18.08
2018-07-11T19:42:01.893Z,18.09
2018-07-11T19:44:51.051Z,18.06
2018-07-11T19:47:41.565Z,18.14
2018-07-11T19:50:27.373Z,18.01
2018-07-11T19:53:13.521Z,17.88
2018-07-11T19:56:49.023Z,17.71
2018-07-11T19:59:18.708Z,17.63
2018-07-11T20:01:48.136Z,17.59
2018-07-11T20:04:17.733Z,17.55
2018-07-11T20:06:47.110Z,17.59
2018-07-11T20:09:16.497Z,17.49
2018-07-11T20:11:45.851Z,17.37
2018-07-11T20:14:15.219Z,17.36
2018-07-11T20:16:44.554Z,17.35
2018-07-11T20:19:13.813Z,17.31
2018-07-11T20:21:43.207Z,17.37
2018-07-11T20:24:12.591Z,17.41
2018-07-11T20:26:41.925Z,17.40
2018-07-11T20:29:11.296Z,17.29
2018-07-11T20:31:40.767Z,17.28
2018-07-11T20:34:10.075Z,17.25
2018-07-11T20:36:39.346Z,17.14
2018-07-11T20:39:08.613Z,17.13
2018-07-11T20:41:38.403Z,17.19
2018-07-11T20:44:07.659Z,17.25
2018-07-11T20:46:36.988Z,17.28
2018-07-11T20:49:11.426Z,17.35
2018-07-11T20:51:40.708Z,17.34
2018-07-11T20:54:09.800Z,17.40
2018-07-11T20:56:39.135Z,17.25
2018-07-11T20:59:19.438Z,17.21
2018-07-11T21:04:07.891Z,17.27
2018-07-11T21:07:11.113Z,17.14
2018-07-11T21:10:01.446Z,17.18
2018-07-11T21:12:52.621Z,17.13
2018-07-11T21:18:22.547Z,17.14
2018-07-11T21:20:52.079Z,17.07
2018-07-11T21:23:21.445Z,17.04
2018-07-11T21:25:50.477Z,17.03
2018-07-11T21:28:19.759Z,17.01
2018-07-11T21:30:49.072Z,17.00
2018-07-11T21:33:18.410Z,16.94
2018-07-11T21:35:47.709Z,16.94
2018-07-11T21:38:17.055Z,16.92
2018-07-11T21:40:46.485Z,16.91
2018-07-11T21:43:15.835Z,16.89
2018-07-11T21:45:45.179Z,16.85
2018-07-11T21:48:14.568Z,16.81
2018-07-11T21:50:44.086Z,16.76
2018-07-11T21:53:13.204Z,16.78
2018-07-11T21:55:42.587Z,16.78
2018-07-11T21:58:12.045Z,16.81
2018-07-11T22:00:41.871Z,16.87
2018-07-11T22:03:11.143Z,16.86
2018-07-11T22:05:40.454Z,16.82
2018-07-11T22:08:09.889Z,16.80
2018-07-11T22:10:39.935Z,16.82
2018-07-11T22:13:09.738Z,16.83
2018-07-11T22:15:39.027Z,16.79
2018-07-11T22:18:25.440Z,16.79
2018-07-11T22:20:53.183Z,16.85
2018-07-11T22:23:20.871Z,16.81
2018-07-11T22:25:48.595Z,16.73
2018-07-11T22:28:16.278Z,16.72
2018-07-11T22:30:44.035Z,16.68
2018-07-11T22:33:11.727Z,16.74
2018-07-11T22:35:39.463Z,16.73
2018-07-11T22:38:07.145Z,16.71
2018-07-11T22:40:35.123Z,16.75
2018-07-11T22:43:02.830Z,16.75
2018-07-11T22:45:30.545Z,16.79
2018-07-11T22:47:58.486Z,16.86
2018-07-11T22:50:26.386Z,16.91
2018-07-11T22:52:54.079Z,16.98
2018-07-11T22:55:21.774Z,16.99
2018-07-11T22:57:49.604Z,17.05
2018-07-11T23:00:17.612Z,17.11
2018-07-11T23:02:45.416Z,17.06
2018-07-11T23:05:13.133Z,17.11
2018-07-11T23:07:40.850Z,17.05
2018-07-11T23:10:08.547Z,16.99
2018-07-11T23:12:36.235Z,17.01
2018-07-11T23:15:03.974Z,17.01
2018-07-11T23:17:31.645Z,17.07
2018-07-11T23:19:59.342Z,17.05
2018-07-11T23:22:27.052Z,17.17
2018-07-11T23:24:54.738Z,17.16
2018-07-11T23:27:22.434Z,17.30
2018-07-11T23:29:50.110Z,17.18
2018-07-11T23:32:17.829Z,17.11
2018-07-11T23:34:45.495Z,17.09
2018-07-11T23:37:13.220Z,17.14
2018-07-11T23:39:40.912Z,17.18
2018-07-11T23:42:08.611Z,17.14
2018-07-11T23:44:36.310Z,17.16
2018-07-11T23:47:04.073Z,17.17
2018-07-11T23:49:31.755Z,17.18
2018-07-11T23:51:59.464Z,17.14
2018-07-11T23:54:27.160Z,17.13
2018-07-11T23:56:55.124Z,17.16
2018-07-11T23:59:22.833Z,17.20
